Time;durP1;ratioP1;P1;durP2;ratioP2;P2;SDS_P1;SDS_P2;PMS_P1;PMS_P2;Temp;Humidity;BMP_temperature;BMP_pressure;BME280_temperature;BME280_humidity;BME280_pressure;Samples;Min_cycle;Max_cycle;Signal;HPM_P1;HPM_P2
2021/10/02 00:31:16;;;;;;;7.70;5.10;;;;;;;17.95;75.94;96332.28;4974881;28;20456;-58
2021/10/02 00:45:04;;;;;;;7.80;6.20;;;;;;;17.97;75.60;96346.13;4974596;28;20425;-58
2021/10/02 00:47:33;;;;;;;6.37;5.70;;;;;;;17.94;75.71;96349.31;4974382;28;20549;-53
2021/10/02 00:49:59;;;;;;;5.90;5.30;;;;;;;17.96;75.44;96337.34;4974444;28;20810;-58
2021/10/02 00:52:25;;;;;;;5.63;5.13;;;;;;;17.99;75.26;96338.66;4974354;28;20970;-53
2021/10/02 00:54:50;;;;;;;6.30;5.47;;;;;;;17.97;75.10;96338.13;4973976;28;20190;-53
2021/10/02 00:57:16;;;;;;;7.63;6.10;;;;;;;17.95;75.49;96342.94;4974444;28;20533;-54
2021/10/02 00:59:42;;;;;;;9.00;6.27;;;;;;;17.97;75.01;96346.13;4974426;28;20202;-58
2021/10/02 01:02:14;;;;;;;7.83;5.60;;;;;;;17.92;74.73;96344.25;4974338;28;20637;-54
2021/10/02 01:05:15;;;;;;;6.10;5.57;;;;;;;17.90;75.05;96350.94;4974050;28;20428;-58
2021/10/02 01:08:02;;;;;;;7.53;6.20;;;;;;;17.86;75.03;96353.34;4974347;28;20768;-53
2021/10/02 01:10:48;;;;;;;6.50;5.90;;;;;;;17.74;75.70;96357.34;4972937;28;20457;-58
2021/10/02 01:13:32;;;;;;;5.37;4.87;;;;;;;17.44;76.70;96353.69;4974229;28;20413;-53
2021/10/02 01:16:09;;;;;;;6.07;5.50;;;;;;;17.30;77.84;96346.53;4974307;28;20916;-53
2021/10/02 01:18:54;;;;;;;8.10;5.57;;;;;;;17.35;77.41;96346.53;4974293;28;20512;-53
2021/10/02 01:21:52;;;;;;;5.70;5.20;;;;;;;17.39;77.31;96347.59;4974095;28;20417;-58
2021/10/02 01:25:02;;;;;;;6.00;5.40;;;;;;;17.33;77.85;96340.69;4973777;28;20406;-58
2021/10/02 01:27:37;;;;;;;5.93;5.33;;;;;;;17.31;78.41;96345.47;4974198;28;20417;-54
2021/10/02 01:30:10;;;;;;;8.17;6.23;;;;;;;17.44;77.91;96348.38;4974168;28;20469;-53
2021/10/02 01:32:49;;;;;;;6.63;5.97;;;;;;;17.55;77.64;96343.84;4973912;28;20752;-54
2021/10/02 01:48:48;;;;;;;6.83;6.23;;;;;;;17.69;77.55;96331.59;4974105;28;20507;-53
2021/10/02 01:51:14;;;;;;;7.30;5.10;;;;;;;17.75;76.21;96329.72;4972615;28;20425;-58
2021/10/02 01:53:42;;;;;;;6.60;5.77;;;;;;;17.72;76.45;96327.59;4975792;28;20822;-59
2021/10/02 01:56:11;;;;;;;7.17;6.03;;;;;;;17.78;76.03;96323.84;4977190;28;20426;-59
2021/10/02 01:58:37;;;;;;;6.40;5.80;;;;;;;17.64;76.48;96325.50;4977742;28;20841;-58
2021/10/02 02:01:05;;;;;;;8.37;6.80;;;;;;;17.48;76.82;96338.81;4977257;28;20416;-53
2021/10/02 02:03:33;;;;;;;8.23;6.40;;;;;;;17.29;77.71;96329.00;4976741;28;20410;-58
2021/10/02 02:06:01;;;;;;;6.63;5.87;;;;;;;17.26;77.74;96325.03;4977202;28;20464;-58
2021/10/02 02:08:28;;;;;;;6.30;5.70;;;;;;;17.24;77.94;96327.16;4977204;28;20441;-58
2021/10/02 02:10:55;;;;;;;6.90;6.03;;;;;;;16.95;79.17;96322.66;4977297;28;20418;-53
2021/10/02 02:13:23;;;;;;;8.03;5.70;;;;;;;17.08;78.73;96307.00;4977040;28;20419;-54
2021/10/02 02:15:51;;;;;;;6.50;5.60;;;;;;;17.06;78.73;96297.69;4977203;28;20439;-53
2021/10/02 02:18:21;;;;;;;6.07;5.40;;;;;;;17.09;79.09;96297.16;4977125;28;20417;-53
2021/10/02 02:21:02;;;;;;;6.87;6.27;;;;;;;17.30;78.12;96296.84;4977151;28;20832;-58
2021/10/02 02:23:28;;;;;;;7.40;5.83;;;;;;;17.18;78.03;96299.00;4976556;28;20425;-58
2021/10/02 02:25:55;;;;;;;7.53;6.50;;;;;;;17.35;77.53;96296.84;4976812;28;20920;-58
2021/10/02 02:28:21;;;;;;;7.37;5.30;;;;;;;17.33;77.27;96298.97;4976890;28;20768;-53
2021/10/02 02:30:48;;;;;;;6.43;5.83;;;;;;;17.31;77.15;96295.78;4976926;28;20543;-53
2021/10/02 02:33:17;;;;;;;5.37;4.90;;;;;;;17.31;76.84;96292.34;4976803;28;20472;-58
2021/10/02 02:35:44;;;;;;;6.60;5.20;;;;;;;17.10;77.50;96291.56;4975525;28;20489;-54
2021/10/02 02:38:10;;;;;;;5.70;4.97;;;;;;;17.13;77.31;96288.41;4976853;28;20476;-58
2021/10/02 02:40:36;;;;;;;10.77;5.87;;;;;;;17.10;77.21;96280.16;4975414;28;20441;-58
2021/10/02 02:43:01;;;;;;;6.80;5.77;;;;;;;17.14;76.78;96278.53;4976590;28;20440;-53
2021/10/02 02:45:28;;;;;;;7.17;6.47;;;;;;;17.15;76.82;96280.16;4976465;28;20263;-58
2021/10/02 02:48:14;;;;;;;6.40;5.70;;;;;;;17.13;76.53;96284.94;4976665;28;20182;-58
2021/10/02 02:50:52;;;;;;;5.90;5.40;;;;;;;17.17;76.05;96286.81;4976323;28;20465;-58
2021/10/02 02:53:47;;;;;;;6.63;5.43;;;;;;;17.32;75.68;96285.94;4976058;28;20419;-58
2021/10/02 02:56:34;;;;;;;5.77;4.67;;;;;;;17.26;76.02;96282.53;4976365;28;20441;-58
2021/10/02 02:59:08;;;;;;;5.23;4.73;;;;;;;17.34;75.50;96275.84;4976553;28;20465;-58
2021/10/02 03:01:39;;;;;;;5.33;4.83;;;;;;;17.43;75.42;96275.03;4976360;28;20420;-58
2021/10/02 03:04:09;;;;;;;5.27;4.77;;;;;;;17.49;75.42;96278.50;4975727;28;20828;-53
2021/10/02 03:06:39;;;;;;;5.10;4.70;;;;;;;17.51;75.57;96273.72;4976273;28;20433;-59
2021/10/02 03:09:05;;;;;;;6.03;4.20;;;;;;;17.52;75.98;96280.59;4976071;28;20453;-53
2021/10/02 03:11:31;;;;;;;5.53;5.03;;;;;;;17.54;75.89;96280.38;4976735;28;20976;-58
2021/10/02 03:13:58;;;;;;;9.07;5.47;;;;;;;17.61;75.86;96278.22;4975812;28;20178;-58
2021/10/02 03:16:26;;;;;;;5.17;4.70;;;;;;;17.59;75.60;96278.47;4976087;28;20764;-58
2021/10/02 03:19:04;;;;;;;5.83;5.23;;;;;;;17.52;76.02;96274.53;4975864;28;20410;-58
2021/10/02 03:21:30;;;;;;;5.87;5.37;;;;;;;17.50;76.08;96264.16;4976143;28;20401;-53
2021/10/02 03:23:56;;;;;;;5.27;4.77;;;;;;;17.57;76.12;96271.84;4974287;28;20501;-53
2021/10/02 03:26:23;;;;;;;6.30;5.70;;;;;;;17.55;76.25;96272.13;4975939;28;20507;-58
2021/10/02 03:28:49;;;;;;;5.93;5.43;;;;;;;17.56;76.20;96271.03;4975799;28;20461;-58
2021/10/02 03:31:17;;;;;;;6.90;4.83;;;;;;;17.53;76.11;96271.59;4975764;28;20890;-53
2021/10/02 03:33:43;;;;;;;7.40;5.00;;;;;;;17.63;76.10;96274.19;4975379;28;20410;-54
2021/10/02 03:36:09;;;;;;;5.97;5.23;;;;;;;17.61;76.30;96267.56;4975607;28;20924;-58
2021/10/02 03:38:36;;;;;;;5.70;5.20;;;;;;;17.52;76.64;96280.59;4975469;28;20440;-53
2021/10/02 03:41:03;;;;;;;5.50;5.00;;;;;;;17.54;76.74;96286.44;4975740;28;20541;-54
2021/10/02 03:43:33;;;;;;;5.20;4.80;;;;;;;17.49;76.75;96291.78;4975300;28;20425;-58
2021/10/02 03:45:58;;;;;;;5.13;4.73;;;;;;;17.52;76.76;96293.13;4975386;28;20439;-58
2021/10/02 03:48:24;;;;;;;7.87;5.70;;;;;;;17.52;76.86;96290.47;4975542;28;20492;-54
2021/10/02 03:50:50;;;;;;;6.80;5.27;;;;;;;17.53;76.48;96290.19;4975328;28;20292;-58
2021/10/02 03:53:15;;;;;;;7.20;6.50;;;;;;;17.56;76.05;96289.63;4974979;28;20581;-53
2021/10/02 03:55:41;;;;;;;7.00;5.10;;;;;;;17.51;76.25;96288.84;4975375;28;20253;-53
2021/10/02 03:58:06;;;;;;;6.20;5.60;;;;;;;17.43;76.55;96293.63;4975306;28;20629;-58
2021/10/02 04:00:32;;;;;;;6.17;5.57;;;;;;;17.45;76.79;96285.38;4975369;28;20252;-59
2021/10/02 04:02:57;;;;;;;5.80;5.30;;;;;;;17.40;76.79;96282.75;4974945;28;20516;-53
2021/10/02 04:05:23;;;;;;;7.23;6.53;;;;;;;17.40;77.12;96288.88;4975065;28;20620;-54
2021/10/02 04:07:48;;;;;;;6.93;6.33;;;;;;;17.36;77.25;96292.31;4975061;28;20209;-54
2021/10/02 04:10:13;;;;;;;6.50;5.70;;;;;;;17.32;77.31;96291.25;4975019;28;20205;-53
2021/10/02 04:12:39;;;;;;;7.50;6.20;;;;;;;17.35;77.46;96277.47;4974732;28;20636;-54
2021/10/02 04:15:05;;;;;;;6.87;6.00;;;;;;;17.40;77.12;96275.59;4974465;28;20228;-58
2021/10/02 04:17:31;;;;;;;6.20;5.60;;;;;;;17.36;77.59;96273.72;4975055;28;20530;-53
2021/10/02 04:19:57;;;;;;;8.10;6.43;;;;;;;17.43;77.05;96271.56;4975018;28;20414;-54
2021/10/02 04:22:22;;;;;;;7.70;6.13;;;;;;;17.40;77.25;96272.94;4975079;28;20538;-53
2021/10/02 04:24:48;;;;;;;6.07;5.50;;;;;;;17.39;77.23;96271.31;4974375;28;20208;-54
2021/10/02 04:27:14;;;;;;;8.40;6.00;;;;;;;17.37;77.39;96272.66;4974958;28;20648;-54
2021/10/02 04:29:39;;;;;;;5.93;5.40;;;;;;;17.35;77.60;96270.28;4974827;28;20496;-53
2021/10/02 04:32:05;;;;;;;6.00;5.43;;;;;;;17.35;77.65;96277.47;4974883;28;20181;-58
2021/10/02 04:34:30;;;;;;;6.00;5.40;;;;;;;17.35;77.81;96277.47;4974210;28;20178;-54
2021/10/02 04:36:56;;;;;;;7.33;5.80;;;;;;;17.29;78.15;96279.31;4974670;28;20201;-59
2021/10/02 04:39:21;;;;;;;5.60;5.10;;;;;;;17.33;77.94;96287.56;4974930;28;20517;-53
2021/10/02 04:41:46;;;;;;;5.73;5.13;;;;;;;17.31;77.95;96285.16;4974610;28;20174;-58
2021/10/02 04:44:12;;;;;;;6.80;5.30;;;;;;;17.30;77.69;96285.44;4974460;28;20174;-53
2021/10/02 04:46:37;;;;;;;6.67;5.60;;;;;;;17.31;77.56;96287.03;4974671;28;20612;-53
2021/10/02 04:49:02;;;;;;;6.80;5.80;;;;;;;17.27;77.66;96283.31;4974624;28;20294;-58
2021/10/02 04:51:28;;;;;;;6.87;6.27;;;;;;;17.09;77.12;96284.69;4974457;28;20182;-58
2021/10/02 04:53:53;;;;;;;5.80;4.90;;;;;;;16.97;75.94;96278.06;4974236;28;20181;-54
2021/10/02 04:56:20;;;;;;;5.73;5.10;;;;;;;16.89;75.04;96279.41;4974455;28;20292;-53
2021/10/02 04:58:46;;;;;;;5.17;4.67;;;;;;;16.77;74.32;96272.78;4974675;28;20178;-58
2021/10/02 05:01:12;;;;;;;5.00;3.93;;;;;;;16.50;74.62;96266.94;4974575;28;20463;-54
2021/10/02 05:03:39;;;;;;;5.50;4.43;;;;;;;16.29;74.89;96274.03;4974019;28;20418;-54
2021/10/02 05:06:06;;;;;;;4.93;3.70;;;;;;;16.02;76.25;96279.56;4974497;28;20488;-53
2021/10/02 05:08:33;;;;;;;4.60;3.97;;;;;;;15.96;75.58;96267.34;4974356;28;20417;-53
2021/10/02 05:10:59;;;;;;;3.93;3.63;;;;;;;16.09;74.65;96274.78;4974519;28;20417;-58
2021/10/02 05:13:25;;;;;;;4.93;4.43;;;;;;;15.86;75.46;96269.97;4974097;28;20464;-58
2021/10/02 05:15:50;;;;;;;4.90;3.77;;;;;;;15.98;74.95;96281.13;4974279;28;20485;-53
2021/10/02 05:18:16;;;;;;;4.50;4.10;;;;;;;16.07;74.33;96271.59;4974442;28;20413;-58
2021/10/02 05:20:41;;;;;;;5.00;3.67;;;;;;;15.98;74.74;96275.06;4974240;28;20205;-58
2021/10/02 05:23:07;;;;;;;5.03;4.57;;;;;;;16.13;74.41;96265.28;4973771;28;20166;-58
2021/10/02 05:25:32;;;;;;;4.73;4.03;;;;;;;16.28;73.93;96265.31;4974258;28;20295;-58
2021/10/02 05:27:59;;;;;;;4.73;3.93;;;;;;;16.25;73.86;96259.72;4977238;28;20257;-53
2021/10/02 05:30:24;;;;;;;4.77;4.10;;;;;;;16.34;73.19;96266.09;4977818;28;20224;-58
2021/10/02 05:32:50;;;;;;;5.37;3.73;;;;;;;16.45;72.63;96271.13;4977677;28;20884;-57
2021/10/02 05:35:16;;;;;;;4.17;3.80;;;;;;;16.53;72.29;96258.44;4977929;28;20195;-53
2021/10/02 05:37:41;;;;;;;8.93;4.20;;;;;;;16.60;71.85;96256.31;4977743;28;20549;-58
2021/10/02 05:40:07;;;;;;;3.80;3.50;;;;;;;16.71;72.21;96247.28;4978034;28;20162;-53
2021/10/02 05:42:33;;;;;;;4.30;3.90;;;;;;;16.73;72.81;96248.63;4977846;28;20253;-58
2021/10/02 05:44:58;;;;;;;4.43;4.00;;;;;;;16.93;72.94;96250.44;4976059;28;21055;-53
2021/10/02 05:47:24;;;;;;;7.37;4.77;;;;;;;17.05;72.85;96250.94;4977839;28;20181;-57
2021/10/02 05:49:49;;;;;;;4.90;4.40;;;;;;;17.15;72.85;96242.97;4977433;28;20285;-53
2021/10/02 05:52:14;;;;;;;5.33;4.83;;;;;;;16.97;74.03;96251.50;4977636;28;20202;-59
2021/10/02 05:54:40;;;;;;;5.70;5.10;;;;;;;16.71;75.49;96249.94;4977107;28;20181;-58
2021/10/02 05:57:06;;;;;;;6.07;5.40;;;;;;;16.53;77.12;96243.31;4977640;28;20170;-53
2021/10/02 05:59:32;;;;;;;6.20;5.57;;;;;;;16.58;77.50;96237.22;4977684;28;20253;-58
2021/10/02 06:01:57;;;;;;;6.93;5.87;;;;;;;16.56;77.56;96242.00;4977565;28;20922;-54
2021/10/02 06:04:23;;;;;;;6.30;5.80;;;;;;;16.59;78.18;96244.91;4977044;28;20174;-53
2021/10/02 06:06:48;;;;;;;7.73;5.47;;;;;;;16.54;78.29;96250.19;4977220;28;20194;-53
2021/10/02 06:09:14;;;;;;;5.80;5.30;;;;;;;16.52;78.91;96243.59;4977246;28;20197;-53
2021/10/02 06:11:39;;;;;;;7.27;4.97;;;;;;;16.65;78.33;96249.16;4977151;28;20229;-58
2021/10/02 06:14:05;;;;;;;6.43;5.83;;;;;;;16.72;78.25;96247.03;4976795;28;20269;-58
2021/10/02 06:16:30;;;;;;;6.67;5.33;;;;;;;16.66;78.90;96250.75;4977260;28;20277;-53
2021/10/02 06:18:56;;;;;;;5.90;5.20;;;;;;;16.57;79.40;96252.34;4977275;28;20254;-58
2021/10/02 06:21:21;;;;;;;6.37;5.77;;;;;;;16.64;79.40;96252.06;4977230;28;20613;-58
2021/10/02 06:23:47;;;;;;;6.30;5.73;;;;;;;16.54;80.10;96242.25;4976713;28;20212;-53
2021/10/02 06:26:12;;;;;;;5.73;5.17;;;;;;;16.51;80.36;96240.13;4977109;28;20197;-58
2021/10/02 06:28:39;;;;;;;8.73;6.27;;;;;;;16.62;79.71;96252.34;4977048;28;20273;-58
2021/10/02 06:31:05;;;;;;;6.10;5.50;;;;;;;16.33;81.27;96249.38;4975770;28;20568;-58
2021/10/02 06:33:30;;;;;;;7.57;6.83;;;;;;;16.25;81.54;96249.91;4976548;28;20422;-53
2021/10/02 06:35:56;;;;;;;8.50;6.33;;;;;;;16.24;81.88;96258.13;4976918;28;20193;-58
2021/10/02 06:38:21;;;;;;;7.00;5.47;;;;;;;16.21;81.83;96254.16;4975942;28;20193;-53
2021/10/02 06:40:48;;;;;;;6.27;5.77;;;;;;;16.36;81.55;96246.19;4976852;28;20261;-58
2021/10/02 06:43:13;;;;;;;8.07;6.40;;;;;;;16.21;82.23;96250.69;4976363;28;20297;-58
2021/10/02 06:45:39;;;;;;;8.37;7.07;;;;;;;15.87;84.21;96257.53;4976623;28;20775;-59
2021/10/02 06:48:05;;;;;;;8.00;6.30;;;;;;;15.95;83.88;96255.16;4976684;28;20197;-58
2021/10/02 06:50:32;;;;;;;6.70;6.10;;;;;;;16.07;83.69;96249.63;4976664;28;20652;-58
2021/10/02 06:52:58;;;;;;;8.73;7.57;;;;;;;15.84;84.61;96253.53;4976106;28;20422;-54
2021/10/02 06:55:23;;;;;;;6.93;6.23;;;;;;;15.86;84.78;96248.78;4976398;28;20440;-58
2021/10/02 06:57:48;;;;;;;8.80;6.50;;;;;;;15.70;85.35;96254.28;4976507;28;20174;-58
2021/10/02 07:00:14;;;;;;;6.73;5.77;;;;;;;15.81;84.81;96254.06;4976523;28;20175;-58
2021/10/02 07:02:41;;;;;;;7.83;6.63;;;;;;;15.79;84.66;96253.53;4975992;28;20201;-54
2021/10/02 07:05:12;;;;;;;6.90;6.30;;;;;;;15.86;84.12;96263.88;4976350;28;20196;-53
2021/10/02 07:07:40;;;;;;;8.67;6.37;;;;;;;15.83;83.90;96251.16;4976547;28;20394;-53
2021/10/02 07:10:06;;;;;;;6.83;6.23;;;;;;;15.95;83.39;96249.84;4976221;28;20530;-58
2021/10/02 07:12:32;;;;;;;6.57;5.90;;;;;;;15.99;82.93;96245.63;4976255;28;20406;-53
2021/10/02 07:14:58;;;;;;;6.13;5.60;;;;;;;15.95;82.46;96254.34;4975790;28;20430;-54
2021/10/02 07:17:23;;;;;;;7.10;5.90;;;;;;;15.92;81.73;96255.69;4975949;28;20409;-58
2021/10/02 07:19:48;;;;;;;5.90;5.40;;;;;;;15.90;81.66;96251.69;4975959;28;20189;-53
2021/10/02 07:22:14;;;;;;;5.40;4.90;;;;;;;16.02;80.90;96252.25;4975997;28;20170;-53
2021/10/02 07:24:39;;;;;;;5.50;5.00;;;;;;;16.04;80.21;96255.44;4975535;28;20197;-53
2021/10/02 07:27:05;;;;;;;5.37;4.93;;;;;;;16.03;80.00;96256.50;4976065;28;20182;-53
2021/10/02 07:29:30;;;;;;;4.87;4.40;;;;;;;16.01;78.99;96262.06;4975805;28;20201;-57
2021/10/02 07:31:56;;;;;;;6.53;4.40;;;;;;;16.03;78.21;96253.84;4975719;28;20166;-58
2021/10/02 07:34:23;;;;;;;6.20;4.50;;;;;;;16.08;76.94;96257.31;4975541;28;20198;-58
2021/10/02 07:36:48;;;;;;;5.30;3.70;;;;;;;16.15;75.78;96249.91;4975676;28;20201;-54
2021/10/02 07:39:14;;;;;;;7.00;4.03;;;;;;;16.23;75.53;96254.66;4974501;28;20780;-53
2021/10/02 07:41:41;;;;;;;3.90;3.60;;;;;;;16.39;75.54;96256.31;4975714;28;20166;-53
2021/10/02 07:44:11;;;;;;;4.77;3.50;;;;;;;16.36;75.07;96250.69;4974988;28;20665;-54
2021/10/02 07:46:45;;;;;;;5.00;4.40;;;;;;;16.50;75.11;96251.00;4975559;28;20927;-58
2021/10/02 07:49:11;;;;;;;4.37;3.93;;;;;;;16.57;74.95;96257.66;4975597;28;20460;-53
2021/10/02 07:51:37;;;;;;;5.40;4.30;;;;;;;16.61;74.09;96255.25;4975464;28;20492;-58
2021/10/02 07:54:04;;;;;;;4.43;4.07;;;;;;;16.62;73.07;96262.94;4974963;28;20261;-58
2021/10/02 07:56:34;;;;;;;4.03;3.73;;;;;;;16.69;72.31;96262.69;4975322;28;20252;-58
2021/10/02 07:59:05;;;;;;;4.80;4.20;;;;;;;16.80;72.37;96249.16;4975358;28;20472;-58
2021/10/02 08:01:31;;;;;;;3.63;3.33;;;;;;;16.71;71.92;96252.59;4975596;28;20409;-53
2021/10/02 08:03:56;;;;;;;3.70;3.40;;;;;;;16.88;68.67;96251.28;4974756;28;20413;-58
2021/10/02 08:06:22;;;;;;;3.30;3.10;;;;;;;16.97;69.64;96254.97;4975179;28;20194;-53
2021/10/02 08:08:50;;;;;;;3.47;3.17;;;;;;;17.03;68.75;96258.41;4975314;28;20170;-58
2021/10/02 08:11:15;;;;;;;2.70;2.50;;;;;;;17.18;69.10;96251.19;4975156;28;20177;-58
2021/10/02 08:13:40;;;;;;;3.80;3.50;;;;;;;17.19;67.64;96249.34;4974621;28;20413;-58
2021/10/02 08:16:07;;;;;;;3.90;2.80;;;;;;;17.19;66.33;96239.50;4974907;28;20243;-53
2021/10/02 08:18:38;;;;;;;2.90;2.60;;;;;;;17.38;66.44;96237.06;4975139;28;20224;-53
2021/10/02 08:21:05;;;;;;;4.80;2.87;;;;;;;17.46;65.37;96237.28;4974830;28;20420;-54
2021/10/02 08:23:35;;;;;;;3.60;3.30;;;;;;;17.55;64.58;96239.41;4974550;28;20409;-58
2021/10/02 08:26:02;;;;;;;4.10;2.97;;;;;;;17.53;64.35;96238.91;4974873;28;20468;-54
2021/10/02 08:28:29;;;;;;;4.17;3.00;;;;;;;17.69;64.37;96249.19;4974744;28;20839;-54
2021/10/02 08:30:55;;;;;;;2.60;2.40;;;;;;;17.81;63.80;96246.22;4974653;28;20967;-54
2021/10/02 08:33:21;;;;;;;2.70;2.50;;;;;;;17.64;61.72;96243.91;4974523;28;20464;-58
2021/10/02 08:35:46;;;;;;;4.20;2.90;;;;;;;17.65;61.55;96234.84;4974711;28;20516;-58
2021/10/02 08:38:12;;;;;;;2.20;2.00;;;;;;;17.81;59.02;96239.03;4973766;28;20192;-54
2021/10/02 08:40:38;;;;;;;2.60;2.40;;;;;;;17.89;60.25;96240.31;4975167;28;20170;-58
2021/10/02 08:43:12;;;;;;;3.03;2.37;;;;;;;17.89;58.73;96243.78;4974179;28;20182;-54
2021/10/02 08:45:38;;;;;;;2.57;2.37;;;;;;;17.88;58.38;96230.78;4974583;28;20912;-53
2021/10/02 08:48:04;;;;;;;2.80;2.50;;;;;;;18.04;56.78;96230.41;4974600;28;20432;-53
2021/10/02 08:50:31;;;;;;;2.20;2.10;;;;;;;18.33;56.80;96231.25;4974374;28;21048;-53
2021/10/02 08:52:56;;;;;;;2.63;2.43;;;;;;;18.35;56.54;96237.09;4974362;28;20417;-54
2021/10/02 08:55:24;;;;;;;2.73;2.20;;;;;;;18.44;55.35;96240.00;4974588;28;20480;-58
2021/10/02 08:57:52;;;;;;;2.47;2.27;;;;;;;18.60;55.49;96230.03;4974576;28;20166;-54
2021/10/02 09:00:21;;;;;;;2.40;2.20;;;;;;;18.82;56.92;96236.50;4973357;28;20468;-59
2021/10/02 09:02:48;;;;;;;2.50;2.30;;;;;;;18.94;54.87;96220.13;4977013;28;20425;-58
2021/10/02 09:05:15;;;;;;;2.43;2.23;;;;;;;18.76;54.10;96221.63;4978455;28;20425;-59
2021/10/02 09:07:40;;;;;;;2.40;1.90;;;;;;;18.82;52.92;96225.03;4978384;28;20501;-54
2021/10/02 09:10:09;;;;;;;2.10;1.90;;;;;;;18.84;52.69;96213.00;4978485;28;20967;-53
2021/10/02 09:12:34;;;;;;;2.33;1.90;;;;;;;19.02;53.01;96211.53;4978544;28;20174;-57
2021/10/02 09:15:03;;;;;;;2.30;2.10;;;;;;;19.23;53.46;96204.91;4978151;28;20488;-54
2021/10/02 09:17:32;;;;;;;2.20;2.00;;;;;;;19.24;51.54;96214.50;4978464;28;20257;-60
2021/10/02 09:19:58;;;;;;;1.70;1.60;;;;;;;19.26;51.04;96207.78;4978309;28;20445;-54
2021/10/02 09:22:24;;;;;;;2.80;2.20;;;;;;;19.24;50.93;96201.16;4978137;28;20405;-59
2021/10/02 09:24:51;;;;;;;1.87;1.77;;;;;;;19.47;53.44;96192.38;4977724;28;20440;-54
2021/10/02 09:27:25;;;;;;;1.90;1.80;;;;;;;19.54;51.46;96195.50;4978198;28;20225;-54
2021/10/02 09:30:02;;;;;;;3.00;2.23;;;;;;;19.68;50.84;96191.03;4978067;28;20456;-59
2021/10/02 09:32:33;;;;;;;3.50;2.30;;;;;;;19.98;51.17;96187.97;4978015;28;20436;-59
2021/10/02 09:35:02;;;;;;;3.07;2.33;;;;;;;19.93;51.05;96190.69;4976271;28;20444;-53
2021/10/02 09:37:34;;;;;;;2.80;2.20;;;;;;;19.96;52.09;96186.66;4977938;28;20449;-54
2021/10/02 09:40:07;;;;;;;3.30;2.37;;;;;;;20.09;51.62;96188.63;4978018;28;20889;-59
2021/10/02 09:42:34;;;;;;;2.70;2.50;;;;;;;20.07;52.36;96188.91;4977778;28;20456;-54
2021/10/02 09:45:14;;;;;;;3.03;2.73;;;;;;;20.31;53.36;96192.28;4977651;28;20522;-54
2021/10/02 09:47:41;;;;;;;2.90;2.60;;;;;;;20.37;51.90;96185.00;4977720;28;20456;-54
2021/10/02 09:50:08;;;;;;;5.10;2.70;;;;;;;20.57;52.81;96182.00;4977891;28;20453;-58
2021/10/02 09:52:40;;;;;;;3.13;2.83;;;;;;;20.43;53.08;96173.94;4977703;28;20467;-57
2021/10/02 09:55:27;;;;;;;3.20;2.90;;;;;;;20.55;52.98;96170.00;4977522;28;20998;-60
2021/10/02 09:57:57;;;;;;;3.27;3.00;;;;;;;20.64;53.49;96162.91;4977726;28;20440;-59
2021/10/02 10:00:37;;;;;;;3.63;3.20;;;;;;;20.79;53.74;96168.00;4977694;28;20912;-54
2021/10/02 10:03:05;;;;;;;4.23;3.83;;;;;;;20.90;53.27;96164.84;4977191;28;20447;-59
2021/10/02 10:05:36;;;;;;;4.80;3.77;;;;;;;20.78;52.75;96156.50;4977359;28;20433;-54
2021/10/02 10:08:05;;;;;;;3.23;3.00;;;;;;;20.44;53.58;96148.03;4977419;28;20489;-58
2021/10/02 10:10:32;;;;;;;3.67;3.37;;;;;;;20.33;53.54;96152.75;4977399;28;20500;-58
2021/10/02 10:13:02;;;;;;;3.10;2.90;;;;;;;20.45;53.51;96155.75;4975982;28;20398;-59
2021/10/02 10:15:32;;;;;;;4.43;3.70;;;;;;;20.32;54.18;96145.84;4976857;28;20429;-54
2021/10/02 10:17:59;;;;;;;3.20;2.90;;;;;;;20.46;54.36;96151.19;4977163;28;20508;-59
2021/10/02 10:20:34;;;;;;;5.63;3.20;;;;;;;20.29;55.51;96153.63;4977191;28;20827;-58
2021/10/02 10:23:02;;;;;;;3.80;3.40;;;;;;;20.56;54.64;96135.03;4976789;28;20416;-58
2021/10/02 10:25:27;;;;;;;3.70;3.40;;;;;;;20.68;53.85;96131.84;4976968;28;20518;-54
2021/10/02 10:27:58;;;;;;;3.27;2.83;;;;;;;20.93;54.41;96120.69;4977133;28;20457;-54
2021/10/02 10:30:25;;;;;;;7.20;3.20;;;;;;;20.98;55.89;96128.63;4977000;28;20225;-54
2021/10/02 10:32:56;;;;;;;3.57;3.27;;;;;;;20.95;54.63;96123.88;4976614;28;20889;-58
2021/10/02 10:35:24;;;;;;;4.80;3.37;;;;;;;21.03;54.01;96116.00;4976700;28;20422;-54
2021/10/02 10:37:49;;;;;;;4.20;3.47;;;;;;;21.22;53.96;96119.34;4976826;28;20508;-59
2021/10/02 10:40:15;;;;;;;5.20;3.17;;;;;;;21.33;53.53;96123.41;4976858;28;20458;-59
2021/10/02 10:42:40;;;;;;;3.80;3.37;;;;;;;21.14;54.09;96111.25;4976442;28;20688;-54
2021/10/02 10:45:06;;;;;;;6.00;3.43;;;;;;;21.30;53.72;96118.66;4976564;28;20198;-54
2021/10/02 10:47:32;;;;;;;4.90;3.43;;;;;;;21.09;52.82;96119.34;4976794;28;20257;-59
2021/10/02 10:49:58;;;;;;;3.67;3.37;;;;;;;21.33;53.49;96103.88;4976627;28;20661;-54
2021/10/02 10:52:24;;;;;;;3.50;3.20;;;;;;;21.45;54.01;96104.94;4976433;28;20641;-54
2021/10/02 10:54:52;;;;;;;3.60;3.30;;;;;;;21.55;52.91;96106.63;4976115;28;20197;-54
2021/10/02 10:57:38;;;;;;;3.83;3.50;;;;;;;21.64;52.96;96099.47;4976511;28;20917;-59
2021/10/02 11:00:10;;;;;;;3.93;3.23;;;;;;;22.02;54.49;96090.03;4976520;28;20449;-58
2021/10/02 11:02:47;;;;;;;3.80;2.87;;;;;;;22.14;51.85;96098.31;4975985;28;20484;-55
2021/10/02 11:05:40;;;;;;;5.70;3.33;;;;;;;22.06;53.08;96099.03;4976373;28;20944;-54
2021/10/02 11:08:06;;;;;;;4.40;3.47;;;;;;;22.12;51.23;96091.69;4975154;28;20508;-59
2021/10/02 11:10:41;;;;;;;4.23;3.17;;;;;;;22.18;50.06;96085.88;4976059;28;20457;-54
2021/10/02 11:13:10;;;;;;;3.37;3.00;;;;;;;22.23;49.61;96083.06;4975725;28;20421;-54
2021/10/02 11:15:35;;;;;;;4.47;3.30;;;;;;;22.15;50.93;96078.47;4975985;28;20434;-54
2021/10/02 11:18:01;;;;;;;3.63;3.33;;;;;;;22.10;49.99;96070.56;4976200;28;20501;-54
2021/10/02 11:20:26;;;;;;;4.00;3.60;;;;;;;22.34;50.46;96067.53;4976092;28;20505;-54
2021/10/02 11:23:29;;;;;;;4.50;3.30;;;;;;;22.31;49.86;96065.50;4975815;28;20181;-54
2021/10/02 11:26:10;;;;;;;4.93;3.40;;;;;;;22.38;50.00;96060.47;4975528;28;20559;-54
2021/10/02 11:28:36;;;;;;;4.47;3.10;;;;;;;22.59;49.74;96052.75;4975867;28;20420;-59
2021/10/02 11:31:12;;;;;;;6.53;3.00;;;;;;;22.49;49.66;96049.22;4975924;28;20461;-59
2021/10/02 11:33:45;;;;;;;3.30;2.83;;;;;;;22.68;50.10;96037.50;4975467;28;20509;-59
2021/10/02 11:36:29;;;;;;;3.23;3.03;;;;;;;22.75;49.63;96035.16;4975902;28;20537;-54
2021/10/02 11:39:12;;;;;;;5.60;3.77;;;;;;;22.80;48.60;96032.31;4975641;28;20437;-54
2021/10/02 11:41:53;;;;;;;3.40;3.10;;;;;;;22.73;48.15;96040.03;4975748;28;20425;-54
2021/10/02 11:44:30;;;;;;;4.90;3.57;;;;;;;22.83;48.93;96029.81;4975277;28;20441;-54
2021/10/02 11:47:34;;;;;;;3.43;3.13;;;;;;;22.92;48.46;96021.81;4975766;28;20464;-54
2021/10/02 11:50:12;;;;;;;3.47;3.17;;;;;;;22.91;47.19;96020.22;4975435;28;20468;-58
2021/10/02 11:52:43;;;;;;;3.37;3.07;;;;;;;22.88;46.57;96016.25;4975240;28;20788;-59
2021/10/02 11:55:47;;;;;;;3.03;2.83;;;;;;;22.96;47.63;96020.06;4975285;28;20430;-54
2021/10/02 11:58:13;;;;;;;3.30;3.00;;;;;;;23.09;48.07;96011.09;4975101;28;20410;-58
2021/10/02 12:00:50;;;;;;;3.13;2.80;;;;;;;23.15;47.02;96010.66;4975043;28;20883;-54
2021/10/02 12:03:23;;;;;;;3.00;2.80;;;;;;;23.07;45.12;96007.94;4974954;28;20504;-54
2021/10/02 12:05:50;;;;;;;3.37;3.07;;;;;;;23.14;45.39;95997.53;4975306;28;20797;-59
2021/10/02 12:08:17;;;;;;;4.40;2.87;;;;;;;23.00;44.91;95997.69;4975131;28;20410;-54
2021/10/02 12:10:53;;;;;;;4.10;2.80;;;;;;;23.08;45.33;95996.91;4975118;28;20507;-54
2021/10/02 12:13:20;;;;;;;4.10;2.70;;;;;;;23.29;45.61;95986.41;4974613;28;20413;-60
2021/10/02 12:15:45;;;;;;;3.50;3.20;;;;;;;23.41;45.79;95989.22;4975069;28;20446;-59
2021/10/02 12:18:11;;;;;;;3.47;3.10;;;;;;;23.26;45.64;95978.97;4974948;28;20512;-54
2021/10/02 12:20:43;;;;;;;3.73;3.27;;;;;;;23.40;46.11;95974.25;4974998;28;20201;-59
2021/10/02 12:23:13;;;;;;;3.20;2.90;;;;;;;23.19;45.75;95971.38;4974539;28;20169;-59
2021/10/02 12:25:39;;;;;;;3.53;3.13;;;;;;;23.39;46.47;95972.66;4974902;28;20484;-59
2021/10/02 12:28:05;;;;;;;4.53;3.27;;;;;;;23.60;45.58;95968.25;4975124;28;20500;-61
2021/10/02 12:30:31;;;;;;;4.77;3.20;;;;;;;23.59;45.94;95958.59;4974634;28;20202;-54
2021/10/02 12:33:01;;;;;;;3.83;3.53;;;;;;;23.61;46.83;95961.00;4973195;28;20174;-54
2021/10/02 12:35:27;;;;;;;3.20;2.90;;;;;;;23.71;46.09;95952.59;4973552;28;20194;-59
2021/10/02 12:37:56;;;;;;;5.00;3.33;;;;;;;23.68;46.50;95945.19;4973995;28;20444;-54